Time;durP1;ratioP1;P1;durP2;ratioP2;P2;SDS_P1;SDS_P2;PMS_P1;PMS_P2;Temp;Humidity;BMP_temperature;BMP_pressure;BME280_temperature;BME280_humidity;BME280_pressure;Samples;Min_cycle;Max_cycle;Signal;HPM_P1;HPM_P2
2021/11/19 00:00:30;;;;;;;13.53;8.80;;;10.80;57.10;;;;;;5022624;28;21512;-47
2021/11/19 00:02:56;;;;;;;11.47;8.17;;;10.80;57.00;;;;;;5022427;28;20448;-48
2021/11/19 00:05:22;;;;;;;9.47;8.23;;;10.80;57.10;;;;;;5019709;28;20970;-48
2021/11/19 00:07:47;;;;;;;12.80;8.60;;;10.80;57.20;;;;;;5022039;28;20665;-47
2021/11/19 00:10:14;;;;;;;9.80;7.50;;;10.80;57.10;;;;;;5030627;28;20649;-49
2021/11/19 00:12:40;;;;;;;12.93;8.70;;;10.80;57.20;;;;;;5024229;28;20555;-51
2021/11/19 00:15:07;;;;;;;15.37;9.57;;;10.70;57.30;;;;;;5023729;28;20490;-50
2021/11/19 00:17:32;;;;;;;12.73;9.60;;;10.60;57.90;;;;;;5027175;28;20483;-48
2021/11/19 00:19:58;;;;;;;11.47;8.53;;;10.30;58.60;;;;;;5022668;28;20476;-50
2021/11/19 00:22:24;;;;;;;11.53;9.00;;;10.00;59.20;;;;;;5024461;28;20669;-49
2021/11/19 00:24:50;;;;;;;12.37;9.03;;;10.10;59.60;;;;;;5022226;28;20246;-48
2021/11/19 00:27:19;;;;;;;14.00;8.50;;;10.00;59.50;;;;;;5023687;28;20564;-48
2021/11/19 00:29:46;;;;;;;14.40;9.80;;;10.10;59.50;;;;;;5019144;28;20505;-51
2021/11/19 00:32:12;;;;;;;12.20;9.03;;;10.10;59.20;;;;;;5023355;28;20527;-51
2021/11/19 00:34:40;;;;;;;13.83;9.27;;;10.20;59.20;;;;;;5022380;28;20448;-50
2021/11/19 00:37:06;;;;;;;10.60;8.10;;;10.10;59.00;;;;;;5020651;28;20436;-50
2021/11/19 00:39:32;;;;;;;12.80;9.03;;;10.10;59.30;;;;;;5022870;28;20495;-52
2021/11/19 00:41:59;;;;;;;9.03;7.60;;;10.20;59.20;;;;;;5027179;28;20435;-49
2021/11/19 00:44:26;;;;;;;10.43;7.73;;;10.10;58.90;;;;;;5016724;28;20537;-50
2021/11/19 00:46:53;;;;;;;12.03;7.77;;;10.10;59.00;;;;;;5021278;28;20447;-51
2021/11/19 00:49:22;;;;;;;11.27;7.97;;;9.90;60.30;;;;;;5024069;28;20452;-50
2021/11/19 00:51:50;;;;;;;8.30;7.03;;;9.70;61.70;;;;;;5022389;28;20839;-49
2021/11/19 00:54:16;;;;;;;8.00;7.27;;;9.70;61.00;;;;;;5019713;28;20467;-47
2021/11/19 00:56:56;;;;;;;9.73;7.73;;;9.70;61.10;;;;;;5025758;28;20436;-48
2021/11/19 00:59:23;;;;;;;13.43;8.37;;;9.80;60.60;;;;;;5021549;28;20479;-50
2021/11/19 01:02:03;;;;;;;9.27;8.30;;;10.00;59.10;;;;;;5017288;28;20444;-51
2021/11/19 01:04:30;;;;;;;14.23;9.43;;;10.10;58.80;;;;;;5013837;28;20480;-47
2021/11/19 01:06:55;;;;;;;10.37;8.13;;;10.20;58.60;;;;;;5021474;28;20522;-49
2021/11/19 01:09:25;;;;;;;11.97;9.70;;;10.20;58.40;;;;;;5022522;28;20885;-51
2021/11/19 01:11:53;;;;;;;14.93;8.73;;;10.30;58.30;;;;;;5024078;28;20663;-51
2021/11/19 01:14:31;;;;;;;9.53;7.40;;;10.30;58.00;;;;;;5020405;28;20450;-46
2021/11/19 01:17:04;;;;;;;8.83;7.43;;;10.30;57.90;;;;;;5024040;28;20471;-48
2021/11/19 01:19:42;;;;;;;9.50;8.50;;;10.30;57.80;;;;;;5022551;28;20503;-46
2021/11/19 01:22:12;;;;;;;9.70;8.53;;;10.30;58.00;;;;;;5018324;28;20444;-49
2021/11/19 01:24:39;;;;;;;13.50;10.37;;;10.30;57.90;;;;;;5019276;28;20489;-51
2021/11/19 01:27:08;;;;;;;14.13;9.00;;;10.30;57.80;;;;;;5019671;28;20447;-52
2021/11/19 01:29:34;;;;;;;10.43;8.53;;;10.20;57.80;;;;;;5018081;28;20471;-51
2021/11/19 01:32:05;;;;;;;10.40;8.40;;;10.20;58.00;;;;;;5022290;28;20436;-47
2021/11/19 01:34:30;;;;;;;12.63;8.30;;;10.20;58.10;;;;;;5022148;28;20860;-47
2021/11/19 01:36:56;;;;;;;13.30;7.93;;;10.20;58.20;;;;;;5018651;28;20527;-52
2021/11/19 01:39:26;;;;;;;11.03;7.90;;;10.10;58.00;;;;;;5023216;28;20309;-51
2021/11/19 01:42:02;;;;;;;9.83;8.40;;;10.00;58.70;;;;;;5020433;28;21096;-49
2021/11/19 01:44:42;;;;;;;12.17;8.47;;;10.00;58.80;;;;;;5020823;28;20447;-48
2021/11/19 01:47:10;;;;;;;9.37;8.13;;;10.00;59.10;;;;;;5015813;28;20456;-48
2021/11/19 01:49:37;;;;;;;10.77;8.57;;;10.00;58.80;;;;;;5023373;28;20790;-51
2021/11/19 01:52:29;;;;;;;11.00;7.73;;;9.80;60.10;;;;;;5027597;28;20783;-51
2021/11/19 01:54:59;;;;;;;8.80;7.90;;;9.70;60.30;;;;;;5019422;28;21056;-51
2021/11/19 01:57:34;;;;;;;11.80;9.17;;;9.60;61.00;;;;;;5018611;28;20455;-52
2021/11/19 02:00:17;;;;;;;12.73;7.93;;;9.60;60.60;;;;;;5023899;28;20494;-50
2021/11/19 02:02:52;;;;;;;12.23;8.60;;;9.60;60.40;;;;;;5019797;28;20475;-49
2021/11/19 02:05:27;;;;;;;9.70;7.20;;;9.70;60.20;;;;;;5020243;28;20451;-51
2021/11/19 02:07:57;;;;;;;11.03;7.90;;;9.80;59.80;;;;;;5016371;28;20458;-46
2021/11/19 02:11:03;;;;;;;12.30;8.60;;;9.90;59.60;;;;;;5024855;28;20431;-47
2021/11/19 02:13:38;;;;;;;10.67;7.40;;;9.80;59.30;;;;;;5019807;28;20462;-51
2021/11/19 02:16:08;;;;;;;8.93;7.70;;;9.80;59.30;;;;;;5022737;28;20957;-50
2021/11/19 02:18:59;;;;;;;10.50;7.63;;;9.80;59.60;;;;;;5022170;28;20533;-48
2021/11/19 02:21:44;;;;;;;14.30;9.20;;;9.70;59.70;;;;;;5010928;28;20482;-47
2021/11/19 02:24:23;;;;;;;10.90;8.07;;;9.70;59.90;;;;;;5026052;28;20435;-50
2021/11/19 02:26:55;;;;;;;9.10;7.50;;;9.80;59.70;;;;;;5023032;28;20458;-47
2021/11/19 02:29:21;;;;;;;9.37;7.60;;;9.70;59.60;;;;;;5025008;28;20458;-46
2021/11/19 02:32:13;;;;;;;9.70;7.73;;;9.80;59.60;;;;;;5027527;28;20844;-47
2021/11/19 02:34:39;;;;;;;11.17;7.73;;;9.80;59.30;;;;;;5024563;28;20854;-46
2021/11/19 02:37:13;;;;;;;9.57;7.83;;;9.80;59.20;;;;;;5026674;28;20446;-46
2021/11/19 02:39:43;;;;;;;9.03;7.57;;;9.70;59.40;;;;;;5022947;28;20512;-48
2021/11/19 02:42:17;;;;;;;10.20;8.70;;;9.70;59.80;;;;;;5023227;28;20435;-47
2021/11/19 02:44:45;;;;;;;10.30;7.57;;;9.60;59.80;;;;;;5029674;28;20472;-47
2021/11/19 02:47:14;;;;;;;9.30;7.93;;;9.70;59.90;;;;;;5030346;28;20470;-46
2021/11/19 02:49:41;;;;;;;9.73;7.70;;;9.70;59.70;;;;;;5026587;28;20436;-47
2021/11/19 02:52:14;;;;;;;9.67;8.00;;;9.80;59.40;;;;;;5022399;28;20455;-47
2021/11/19 02:54:40;;;;;;;9.13;7.13;;;9.70;59.30;;;;;;5028004;28;20911;-48
2021/11/19 02:57:07;;;;;;;12.30;7.87;;;9.70;59.30;;;;;;5025045;28;20440;-46
2021/11/19 02:59:33;;;;;;;10.67;7.40;;;9.60;59.30;;;;;;5022115;28;20229;-47
2021/11/19 03:02:09;;;;;;;11.10;7.77;;;9.60;59.50;;;;;;5023825;28;20480;-46
2021/11/19 03:04:47;;;;;;;8.77;7.87;;;9.60;59.30;;;;;;5026083;28;20962;-47
2021/11/19 03:07:13;;;;;;;9.27;7.97;;;9.70;59.10;;;;;;5024710;28;20530;-48
2021/11/19 03:09:43;;;;;;;12.13;8.10;;;9.70;59.00;;;;;;5028772;28;20446;-47
2021/11/19 03:12:12;;;;;;;9.47;7.50;;;9.70;58.90;;;;;;5026253;28;20436;-47
2021/11/19 03:14:39;;;;;;;9.80;7.37;;;9.70;58.80;;;;;;5025641;28;20828;-47
2021/11/19 03:17:08;;;;;;;9.73;7.10;;;9.70;58.60;;;;;;5024352;28;21021;-46
2021/11/19 03:19:33;;;;;;;11.03;7.43;;;9.70;58.30;;;;;;5021917;28;20485;-48
2021/11/19 03:21:59;;;;;;;7.30;6.60;;;9.60;57.80;;;;;;5022930;28;20443;-48
2021/11/19 03:24:25;;;;;;;10.23;7.67;;;9.60;57.80;;;;;;5028970;28;20209;-46
2021/11/19 03:26:52;;;;;;;7.73;6.90;;;9.60;57.80;;;;;;5023416;28;20201;-46
2021/11/19 03:29:20;;;;;;;7.93;6.33;;;9.60;57.60;;;;;;5030041;28;20661;-47
2021/11/19 03:31:47;;;;;;;11.13;7.70;;;9.60;57.50;;;;;;5023438;28;20454;-46
2021/11/19 03:34:13;;;;;;;9.33;6.47;;;9.40;58.30;;;;;;5024777;28;20440;-47
2021/11/19 03:36:44;;;;;;;11.93;7.20;;;9.40;58.50;;;;;;5023957;28;20509;-51
2021/11/19 03:39:12;;;;;;;8.93;6.17;;;9.40;58.30;;;;;;5024906;28;20541;-49
2021/11/19 03:41:40;;;;;;;7.73;6.67;;;9.30;58.20;;;;;;5023711;28;20651;-47
2021/11/19 03:44:34;;;;;;;8.33;6.77;;;9.30;58.30;;;;;;5028778;28;20537;-46
2021/11/19 03:47:09;;;;;;;8.83;7.13;;;9.30;58.40;;;;;;5026099;28;20516;-47
2021/11/19 03:49:37;;;;;;;11.97;8.03;;;9.40;58.40;;;;;;5022649;28;20935;-47
2021/11/19 03:52:11;;;;;;;10.30;7.00;;;9.30;58.20;;;;;;5024213;28;20470;-48
2021/11/19 03:54:38;;;;;;;7.40;6.60;;;9.30;58.80;;;;;;5023123;28;20448;-47
2021/11/19 03:57:06;;;;;;;9.00;7.50;;;9.30;58.20;;;;;;5022736;28;20443;-46
2021/11/19 03:59:31;;;;;;;10.83;8.00;;;9.30;58.30;;;;;;5026077;28;20484;-47
2021/11/19 04:01:58;;;;;;;7.90;7.10;;;9.20;58.10;;;;;;5021569;28;20443;-47
2021/11/19 04:04:28;;;;;;;9.17;8.10;;;9.20;58.00;;;;;;5024445;28;20561;-49
2021/11/19 04:06:57;;;;;;;8.20;7.30;;;9.20;58.00;;;;;;5019943;28;20535;-47
2021/11/19 04:09:23;;;;;;;8.57;6.90;;;9.20;58.10;;;;;;5018491;28;20444;-46
2021/11/19 04:11:49;;;;;;;11.40;8.17;;;9.00;58.00;;;;;;5027174;28;20451;-46
2021/11/19 04:14:15;;;;;;;9.00;8.10;;;8.90;58.60;;;;;;5025292;28;20243;-50
2021/11/19 04:16:45;;;;;;;11.60;8.23;;;9.00;58.60;;;;;;5022173;28;20201;-47
2021/11/19 04:19:13;;;;;;;9.20;7.83;;;8.90;58.20;;;;;;5021430;28;20495;-48
2021/11/19 04:21:40;;;;;;;8.90;7.13;;;9.00;58.50;;;;;;5020922;28;20928;-47
2021/11/19 04:24:09;;;;;;;8.40;7.27;;;9.00;58.60;;;;;;5023990;28;20444;-47
2021/11/19 04:26:36;;;;;;;8.67;6.80;;;9.00;58.30;;;;;;5025604;28;20934;-48
2021/11/19 04:29:04;;;;;;;11.37;6.97;;;9.10;58.20;;;;;;5022342;28;21021;-47
2021/11/19 04:31:31;;;;;;;10.10;7.50;;;9.10;58.10;;;;;;5019690;28;20479;-47
2021/11/19 04:33:58;;;;;;;9.80;7.30;;;9.00;58.00;;;;;;5024209;28;20455;-48
2021/11/19 04:36:24;;;;;;;14.50;8.53;;;9.00;58.10;;;;;;5019866;28;20447;-46
2021/11/19 04:38:50;;;;;;;10.40;7.10;;;9.00;58.30;;;;;;5021926;28;20491;-48
2021/11/19 04:41:16;;;;;;;7.97;7.10;;;9.00;58.30;;;;;;5021450;28;20443;-49
2021/11/19 04:43:42;;;;;;;16.20;8.57;;;9.00;58.30;;;;;;5019936;28;20311;-48
2021/11/19 04:46:09;;;;;;;13.20;7.97;;;9.00;58.30;;;;;;5022850;28;20851;-46
2021/11/19 04:48:36;;;;;;;12.03;8.40;;;9.00;58.40;;;;;;5022748;28;20443;-49
2021/11/19 04:51:20;;;;;;;8.23;7.37;;;9.00;59.00;;;;;;5020680;28;20819;-46
2021/11/19 04:53:46;;;;;;;9.37;8.37;;;9.00;58.60;;;;;;5020868;28;22503;-50
2021/11/19 04:56:13;;;;;;;11.70;7.53;;;8.90;58.50;;;;;;5019515;28;20523;-50
2021/11/19 04:58:39;;;;;;;10.57;8.00;;;8.90;58.70;;;;;;5021955;28;20483;-51
2021/11/19 05:01:08;;;;;;;8.97;7.53;;;8.80;58.80;;;;;;5020615;28;20444;-50
2021/11/19 05:03:34;;;;;;;14.40;8.80;;;8.80;58.90;;;;;;5026600;28;21173;-51
2021/11/19 05:06:00;;;;;;;12.33;9.20;;;8.90;58.60;;;;;;5026996;28;20511;-51
2021/11/19 05:08:27;;;;;;;11.57;9.03;;;8.90;58.30;;;;;;5024420;28;20197;-48
2021/11/19 05:10:57;;;;;;;8.93;7.93;;;8.90;58.10;;;;;;5016362;28;20439;-50
2021/11/19 05:13:24;;;;;;;7.80;7.00;;;8.90;58.10;;;;;;5022471;28;20819;-51
2021/11/19 05:15:52;;;;;;;8.47;7.17;;;8.90;58.10;;;;;;5024691;28;20452;-51
2021/11/19 05:18:22;;;;;;;8.60;7.60;;;8.90;57.90;;;;;;5028321;28;20587;-50
2021/11/19 05:20:49;;;;;;;8.50;7.00;;;8.90;57.90;;;;;;5023327;28;20467;-51
2021/11/19 05:23:15;;;;;;;9.90;8.30;;;8.80;57.90;;;;;;5020507;28;20574;-51
2021/11/19 05:25:41;;;;;;;7.00;6.30;;;8.80;58.00;;;;;;5018718;28;20440;-49
2021/11/19 05:28:08;;;;;;;8.17;7.37;;;8.80;58.10;;;;;;5022917;28;20194;-51
2021/11/19 05:30:35;;;;;;;8.40;7.60;;;8.80;58.30;;;;;;5023895;28;20447;-51
2021/11/19 05:33:01;;;;;;;10.53;7.57;;;8.80;58.40;;;;;;5019268;28;20443;-50
2021/11/19 05:35:27;;;;;;;11.03;7.80;;;8.80;58.50;;;;;;5022600;28;20443;-50
2021/11/19 05:37:52;;;;;;;9.20;7.90;;;8.80;58.50;;;;;;5019073;28;21890;-51
2021/11/19 05:40:21;;;;;;;10.70;8.00;;;8.80;58.70;;;;;;5020617;28;20479;-50
2021/11/19 05:42:47;;;;;;;10.60;8.53;;;8.90;59.00;;;;;;5022854;28;20231;-51
2021/11/19 05:45:15;;;;;;;9.13;7.63;;;8.90;59.10;;;;;;5023178;28;20448;-51
2021/11/19 05:47:41;;;;;;;10.10;7.40;;;8.90;59.20;;;;;;5023996;28;20462;-49
2021/11/19 05:50:09;;;;;;;8.93;7.40;;;8.90;59.30;;;;;;5020424;28;20927;-47
2021/11/19 05:52:35;;;;;;;9.00;7.80;;;9.00;59.20;;;;;;5027796;28;20280;-50
2021/11/19 05:55:02;;;;;;;10.53;8.80;;;8.90;59.10;;;;;;5024684;28;20575;-49
2021/11/19 05:57:28;;;;;;;11.30;9.40;;;8.70;59.70;;;;;;5025808;28;20444;-50
2021/11/19 05:59:54;;;;;;;9.63;8.20;;;8.70;60.20;;;;;;5020656;28;20541;-51
2021/11/19 06:02:21;;;;;;;8.77;7.10;;;8.70;60.40;;;;;;5025795;28;20448;-47
2021/11/19 06:04:47;;;;;;;10.80;7.80;;;8.80;60.40;;;;;;5021812;28;20456;-52
2021/11/19 06:07:13;;;;;;;9.70;7.40;;;8.90;60.20;;;;;;5017670;28;20800;-49
2021/11/19 06:09:40;;;;;;;10.40;8.57;;;9.00;60.00;;;;;;5019902;28;20449;-47
2021/11/19 06:12:24;;;;;;;11.90;7.60;;;9.00;59.80;;;;;;5024019;28;20201;-51
2021/11/19 06:14:57;;;;;;;16.73;8.20;;;9.10;59.80;;;;;;5026393;28;20585;-48
2021/11/19 06:17:51;;;;;;;11.00;8.10;;;9.00;60.30;;;;;;5026312;28;20575;-51
2021/11/19 06:20:34;;;;;;;12.33;8.50;;;9.20;60.40;;;;;;5026020;28;20495;-51
2021/11/19 06:23:05;;;;;;;11.20;7.50;;;9.40;61.50;;;;;;5022784;28;20741;-50
2021/11/19 06:25:34;;;;;;;8.83;7.87;;;9.70;63.30;;;;;;5028413;28;20563;-48
2021/11/19 06:28:02;;;;;;;9.60;7.27;;;9.90;63.30;;;;;;5023232;28;20442;-48
2021/11/19 06:30:29;;;;;;;11.40;7.60;;;10.20;61.60;;;;;;5027286;28;20461;-50
2021/11/19 06:32:55;;;;;;;8.43;7.53;;;10.30;59.80;;;;;;5028681;28;20451;-48
2021/11/19 06:35:22;;;;;;;10.53;7.77;;;10.30;58.80;;;;;;5024843;28;20947;-49
2021/11/19 06:37:48;;;;;;;10.43;7.90;;;10.40;59.20;;;;;;5027600;28;20193;-47
2021/11/19 06:40:17;;;;;;;10.27;7.97;;;10.30;58.00;;;;;;5027391;28;20498;-48
2021/11/19 06:42:45;;;;;;;12.63;7.80;;;10.30;58.20;;;;;;5029031;28;20963;-48
2021/11/19 06:45:14;;;;;;;12.37;7.43;;;10.40;58.40;;;;;;5022193;28;20463;-47
2021/11/19 06:47:40;;;;;;;9.00;8.07;;;10.50;58.20;;;;;;5023058;28;20817;-48
2021/11/19 06:50:06;;;;;;;8.67;7.80;;;10.60;57.80;;;;;;5023926;28;20436;-48
2021/11/19 06:52:32;;;;;;;10.30;8.70;;;10.60;57.50;;;;;;5023603;28;20452;-48
2021/11/19 06:54:58;;;;;;;13.13;8.63;;;10.80;57.20;;;;;;5023024;28;21457;-47
2021/11/19 06:57:24;;;;;;;10.37;7.70;;;10.90;56.80;;;;;;5024791;28;20446;-46
2021/11/19 06:59:49;;;;;;;13.03;8.60;;;10.90;56.60;;;;;;5029966;28;20229;-51
2021/11/19 07:02:15;;;;;;;8.30;7.50;;;11.00;56.70;;;;;;5021214;28;20201;-48
2021/11/19 07:04:41;;;;;;;11.87;8.27;;;11.10;56.00;;;;;;5025784;28;20680;-50
2021/11/19 07:07:08;;;;;;;10.20;8.00;;;11.10;56.00;;;;;;5028344;28;20197;-46
2021/11/19 07:09:37;;;;;;;11.03;8.27;;;11.20;56.00;;;;;;5025970;28;20442;-49
2021/11/19 07:12:05;;;;;;;8.97;8.00;;;11.20;55.80;;;;;;5031607;28;20462;-50
2021/11/19 07:14:30;;;;;;;11.17;8.13;;;11.20;55.70;;;;;;5025015;28;20467;-46
2021/11/19 07:16:56;;;;;;;13.60;9.67;;;11.20;56.00;;;;;;5021182;28;20479;-47
2021/11/19 07:19:23;;;;;;;12.47;8.70;;;11.20;56.00;;;;;;5022202;28;20252;-51
2021/11/19 07:21:53;;;;;;;9.03;7.70;;;11.20;55.80;;;;;;5024460;28;20223;-48
2021/11/19 07:24:19;;;;;;;10.00;8.20;;;11.20;55.60;;;;;;5025867;28;20946;-50
2021/11/19 07:26:45;;;;;;;11.40;9.27;;;11.30;55.60;;;;;;5030445;28;20444;-50
2021/11/19 07:29:11;;;;;;;11.13;9.00;;;11.20;55.30;;;;;;5031817;28;21891;-49
2021/11/19 07:31:36;;;;;;;11.50;8.80;;;11.20;55.30;;;;;;5028853;28;20201;-47
2021/11/19 07:34:03;;;;;;;9.53;8.53;;;11.30;55.40;;;;;;5034813;28;20439;-47
2021/11/19 07:36:29;;;;;;;8.40;7.43;;;11.30;55.60;;;;;;5027976;28;20200;-48
2021/11/19 07:38:56;;;;;;;12.00;8.10;;;11.40;56.00;;;;;;5031308;28;20471;-49
2021/11/19 07:41:22;;;;;;;9.70;7.90;;;11.40;56.10;;;;;;5028788;28;20448;-50
2021/11/19 07:43:48;;;;;;;9.57;8.67;;;11.40;56.40;;;;;;5029525;28;20519;-51
2021/11/19 07:46:20;;;;;;;12.47;10.30;;;11.40;55.70;;;;;;5024785;28;20542;-46
2021/11/19 07:48:46;;;;;;;12.73;9.83;;;11.50;56.00;;;;;;5032629;28;20212;-51
2021/11/19 07:51:19;;;;;;;15.90;10.33;;;11.60;55.80;;;;;;5033475;28;20436;-47
2021/11/19 07:53:46;;;;;;;10.40;8.87;;;11.70;55.60;;;;;;5024822;28;20467;-48
2021/11/19 07:56:13;;;;;;;9.93;8.67;;;11.80;55.70;;;;;;5035480;28;20510;-47
2021/11/19 07:58:40;;;;;;;14.37;9.27;;;11.60;55.40;;;;;;5027636;28;20915;-46
2021/11/19 08:01:06;;;;;;;10.70;8.30;;;11.60;55.80;;;;;;5028141;28;20609;-50
2021/11/19 08:03:32;;;;;;;9.60;8.30;;;11.60;56.00;;;;;;5031071;28;20807;-45
2021/11/19 08:06:00;;;;;;;9.50;8.50;;;11.60;55.80;;;;;;5032235;28;20427;-47
2021/11/19 08:08:29;;;;;;;11.10;9.90;;;11.60;55.40;;;;;;5025641;28;20558;-46
2021/11/19 08:10:55;;;;;;;13.60;11.10;;;11.70;55.70;;;;;;5029140;28;21268;-46
2021/11/19 08:13:21;;;;;;;13.53;10.10;;;11.60;55.30;;;;;;5032322;28;20444;-47
2021/11/19 08:15:47;;;;;;;11.20;9.57;;;11.30;55.10;;;;;;5029174;28;20564;-46
2021/11/19 08:18:26;;;;;;;11.77;9.70;;;11.30;56.20;;;;;;5030132;28;20514;-46
2021/11/19 08:20:54;;;;;;;10.83;9.30;;;11.10;56.90;;;;;;5028440;28;20197;-46
2021/11/19 08:23:33;;;;;;;9.93;8.93;;;11.10;56.80;;;;;;5032374;28;20963;-48
2021/11/19 08:25:59;;;;;;;11.10;9.10;;;11.10;56.70;;;;;;5030475;28;20436;-46
2021/11/19 08:28:26;;;;;;;11.73;9.13;;;11.20;56.90;;;;;;5030479;28;20564;-47
2021/11/19 08:30:52;;;;;;;10.53;9.53;;;11.20;56.80;;;;;;5030008;28;20448;-48
2021/11/19 08:33:18;;;;;;;9.87;8.40;;;10.70;57.50;;;;;;5030836;28;20438;-47
2021/11/19 08:35:44;;;;;;;10.40;9.30;;;10.80;58.10;;;;;;5024400;28;20200;-45
2021/11/19 08:38:18;;;;;;;11.93;9.30;;;10.80;58.10;;;;;;5031092;28;21006;-48
2021/11/19 08:40:45;;;;;;;10.80;8.20;;;10.80;58.00;;;;;;5027190;28;20432;-50
2021/11/19 08:43:14;;;;;;;10.17;9.07;;;10.90;58.00;;;;;;5027045;28;20458;-47
2021/11/19 08:45:41;;;;;;;12.00;9.97;;;11.00;57.90;;;;;;5031259;28;20924;-46
2021/11/19 08:48:07;;;;;;;10.47;9.40;;;11.10;57.80;;;;;;5030005;28;20436;-49
2021/11/19 08:50:37;;;;;;;10.47;9.27;;;11.00;58.00;;;;;;5030386;28;20440;-46
2021/11/19 08:53:04;;;;;;;12.33;8.97;;;11.00;57.90;;;;;;5028356;28;20465;-46
2021/11/19 08:55:29;;;;;;;13.03;10.03;;;11.10;58.00;;;;;;5029345;28;20855;-46
2021/11/19 08:57:57;;;;;;;11.40;9.60;;;10.90;58.40;;;;;;5031339;28;20444;-46
2021/11/19 09:00:27;;;;;;;11.10;9.30;;;11.00;58.70;;;;;;5030212;28;20243;-47
2021/11/19 09:02:55;;;;;;;11.40;9.07;;;11.10;58.80;;;;;;5031196;28;20439;-46
2021/11/19 09:05:21;;;;;;;10.10;9.00;;;11.10;59.00;;;;;;5036457;28;20432;-47
2021/11/19 09:07:46;;;;;;;10.80;9.73;;;11.20;58.80;;;;;;5031991;28;20799;-45
2021/11/19 09:10:15;;;;;;;13.40;10.20;;;11.30;58.50;;;;;;5029090;28;20221;-45
2021/11/19 09:12:41;;;;;;;11.50;8.80;;;11.30;58.20;;;;;;5029947;28;20196;-45
2021/11/19 09:15:13;;;;;;;11.93;9.37;;;11.40;58.40;;;;;;5029369;28;20439;-46
2021/11/19 09:17:59;;;;;;;15.70;10.27;;;11.40;58.40;;;;;;5031437;28;20499;-47
2021/11/19 09:20:43;;;;;;;11.80;9.17;;;11.50;58.40;;;;;;5023696;28;20487;-46
2021/11/19 09:23:19;;;;;;;13.03;9.97;;;11.50;58.50;;;;;;5024480;28;21200;-46
2021/11/19 09:25:48;;;;;;;16.40;10.37;;;11.60;58.60;;;;;;5029132;28;20945;-49
2021/11/19 09:28:15;;;;;;;11.67;10.50;;;11.60;58.60;;;;;;5031427;28;20498;-46
2021/11/19 09:30:44;;;;;;;13.00;10.80;;;11.70;58.60;;;;;;5026908;28;20431;-46
2021/11/19 09:33:13;;;;;;;11.00;9.13;;;11.70;58.40;;;;;;5030497;28;20927;-46
2021/11/19 09:35:40;;;;;;;12.50;9.93;;;11.80;58.50;;;;;;5033348;28;20432;-45
2021/11/19 09:38:07;;;;;;;9.80;8.80;;;11.80;59.20;;;;;;5032162;28;20432;-48
2021/11/19 09:40:42;;;;;;;10.67;8.90;;;12.00;59.20;;;;;;5032908;28;20444;-50
2021/11/19 09:43:39;;;;;;;10.43;9.33;;;12.20;58.70;;;;;;5040622;28;20435;-47
2021/11/19 09:46:35;;;;;;;15.03;9.37;;;12.40;58.40;;;;;;5029949;28;20778;-46
2021/11/19 09:49:07;;;;;;;10.37;9.03;;;12.50;57.40;;;;;;5038404;28;20439;-50
2021/11/19 09:52:04;;;;;;;10.60;9.50;;;12.60;57.00;;;;;;5032078;28;20443;-47
2021/11/19 09:54:53;;;;;;;14.07;9.07;;;12.80;56.90;;;;;;5040478;28;20926;-49
2021/11/19 09:57:40;;;;;;;12.20;9.30;;;12.90;56.90;;;;;;5031014;28;20435;-47
2021/11/19 10:00:28;;;;;;;9.43;8.37;;;13.10;56.40;;;;;;5033931;28;20614;-46
2021/11/19 10:03:34;;;;;;;13.70;10.30;;;13.20;56.10;;;;;;5033702;28;20451;-46
2021/11/19 10:06:17;;;;;;;11.07;9.43;;;13.20;55.80;;;;;;5034097;28;20459;-46
2021/11/19 10:08:48;;;;;;;11.03;9.60;;;13.30;55.70;;;;;;5037692;28;20488;-52
2021/11/19 10:11:25;;;;;;;12.77;10.50;;;13.30;55.30;;;;;;5036730;28;20519;-46
2021/11/19 10:14:04;;;;;;;10.30;9.00;;;13.30;55.20;;;;;;5028780;28;20804;-49
2021/11/19 10:16:36;;;;;;;13.83;9.17;;;13.40;55.30;;;;;;5034336;28;20439;-47
2021/11/19 10:19:26;;;;;;;11.50;10.30;;;13.40;55.40;;;;;;5031837;28;20559;-45
2021/11/19 10:22:03;;;;;;;13.23;9.80;;;13.50;55.50;;;;;;5030982;28;20990;-48
2021/11/19 10:24:38;;;;;;;15.60;10.10;;;13.50;55.80;;;;;;5033881;28;20440;-48
2021/11/19 10:27:08;;;;;;;15.10;11.33;;;13.50;55.70;;;;;;5047962;28;20522;-47
2021/11/19 10:29:42;;;;;;;12.83;9.97;;;13.60;56.20;;;;;;5034085;28;20427;-46
2021/11/19 10:32:10;;;;;;;13.67;10.27;;;13.70;55.70;;;;;;5031739;28;20448;-46
2021/11/19 10:35:01;;;;;;;15.53;10.87;;;13.70;55.30;;;;;;5034668;28;20450;-50
2021/11/19 10:38:04;;;;;;;14.57;10.70;;;13.70;55.00;;;;;;5032669;28;20459;-50
2021/11/19 10:40:39;;;;;;;16.30;11.40;;;13.60;55.00;;;;;;5039594;28;20491;-45
2021/11/19 10:43:14;;;;;;;14.67;11.00;;;13.50;55.20;;;;;;5042023;28;20496;-46
2021/11/19 10:46:12;;;;;;;21.73;11.20;;;13.50;55.10;;;;;;5036255;28;20530;-47
2021/11/19 10:49:15;;;;;;;15.60;11.80;;;13.50;55.00;;;;;;5035686;28;20456;-50
2021/11/19 10:52:17;;;;;;;12.90;9.00;;;13.50;55.10;;;;;;5025405;28;20446;-48
2021/11/19 10:55:01;;;;;;;17.17;11.23;;;13.20;55.00;;;;;;5032249;28;20482;-48
2021/11/19 10:57:48;;;;;;;13.27;10.63;;;13.20;55.40;;;;;;5031951;28;20892;-47
2021/11/19 11:00:24;;;;;;;17.20;10.40;;;13.20;55.40;;;;;;5019566;28;20505;-47
2021/11/19 11:02:51;;;;;;;15.40;11.90;;;13.30;55.60;;;;;;5035509;28;20955;-47
2021/11/19 11:05:54;;;;;;;22.17;11.60;;;13.30;55.50;;;;;;5035020;28;20447;-49
2021/11/19 11:08:27;;;;;;;16.40;11.40;;;13.30;55.40;;;;;;5027540;28;20947;-49
2021/11/19 11:11:00;;;;;;;16.70;12.10;;;13.20;55.40;;;;;;5031877;28;21040;-50
2021/11/19 11:13:34;;;;;;;17.57;12.67;;;13.30;55.50;;;;;;5032379;28;20807;-46
2021/11/19 11:16:31;;;;;;;21.77;12.53;;;13.40;55.80;;;;;;5035056;28;20439;-45
2021/11/19 11:19:13;;;;;;;14.60;12.80;;;13.50;55.50;;;;;;5028509;28;20494;-45
2021/11/19 11:21:57;;;;;;;16.50;12.10;;;13.50;55.10;;;;;;5032660;28;20471;-46
2021/11/19 11:24:27;;;;;;;17.27;13.77;;;13.50;55.20;;;;;;5033114;28;20935;-46
2021/11/19 11:27:11;;;;;;;21.70;12.47;;;13.70;55.30;;;;;;5023770;28;20810;-45
2021/11/19 11:29:45;;;;;;;17.80;12.10;;;13.80;54.90;;;;;;5040470;28;20822;-47
2021/11/19 11:32:34;;;;;;;20.63;13.03;;;13.80;54.50;;;;;;5030147;28;21051;-48
2021/11/19 11:35:12;;;;;;;18.73;13.03;;;13.80;54.40;;;;;;5031671;28;20448;-47
2021/11/19 11:37:57;;;;;;;17.93;14.00;;;13.70;54.10;;;;;;5029215;28;20514;-45
2021/11/19 11:40:29;;;;;;;24.87;14.90;;;13.70;54.30;;;;;;5029598;28;20995;-47
2021/11/19 11:43:32;;;;;;;21.17;15.03;;;13.70;54.60;;;;;;5028473;28;22021;-46
2021/11/19 11:46:19;;;;;;;18.50;13.43;;;13.60;54.50;;;;;;5020684;28;20455;-46
2021/11/19 11:49:08;;;;;;;17.50;13.20;;;13.60;54.60;;;;;;5039027;28;20448;-45
2021/11/19 11:52:00;;;;;;;19.80;15.60;;;13.60;54.70;;;;;;5035041;28;20438;-47
2021/11/19 11:54:57;;;;;;;22.90;15.97;;;13.50;54.80;;;;;;5030312;28;20946;-45
2021/11/19 11:57:30;;;;;;;17.43;13.43;;;13.50;55.20;;;;;;5026729;28;20459;-46
2021/11/19 12:00:08;;;;;;;18.23;13.50;;;13.40;55.20;;;;;;5032308;28;20491;-47
2021/11/19 12:03:05;;;;;;;26.70;19.03;;;13.40;55.20;;;;;;5024248;28;20515;-46
2021/11/19 12:05:51;;;;;;;28.40;21.03;;;13.40;55.20;;;;;;5032034;28;20471;-48
2021/11/19 12:08:41;;;;;;;22.63;15.73;;;13.30;55.60;;;;;;5030735;28;20499;-47
2021/11/19 12:11:11;;;;;;;22.23;13.53;;;13.20;55.70;;;;;;5029641;28;20444;-45
2021/11/19 12:13:51;;;;;;;24.83;15.40;;;13.20;55.80;;;;;;5029503;28;20435;-46
2021/11/19 12:16:24;;;;;;;20.13;15.00;;;13.20;55.90;;;;;;5029718;28;20949;-46
2021/11/19 12:19:01;;;;;;;22.23;14.90;;;13.20;55.90;;;;;;5032422;28;20591;-46
2021/11/19 12:21:36;;;;;;;19.70;15.30;;;13.20;55.70;;;;;;5031407;28;20439;-47
2021/11/19 12:24:04;;;;;;;22.60;16.90;;;13.30;55.60;;;;;;5032604;28;20435;-46
2021/11/19 12:26:57;;;;;;;19.93;15.73;;;13.30;55.70;;;;;;5037193;28;20975;-45
2021/11/19 12:29:47;;;;;;;22.10;14.40;;;13.40;55.70;;;;;;5021522;28;20455;-46
2021/11/19 12:32:24;;;;;;;22.67;14.20;;;13.40;55.50;;;;;;5025735;28;20433;-46
2021/11/19 12:35:02;;;;;;;21.30;14.10;;;13.40;55.10;;;;;;5031163;28;20538;-46
2021/11/19 12:38:05;;;;;;;20.50;14.10;;;13.40;55.10;;;;;;5030446;28;20448;-46
2021/11/19 12:40:30;;;;;;;18.00;13.10;;;13.40;55.40;;;;;;5038025;28;20495;-48
2021/11/19 12:43:07;;;;;;;19.13;12.93;;;13.50;55.50;;;;;;5029034;28;20438;-49
2021/11/19 12:45:37;;;;;;;20.97;13.37;;;13.30;54.90;;;;;;5025858;28;20671;-46
2021/11/19 12:48:27;;;;;;;20.10;15.03;;;13.30;54.60;;;;;;5027722;28;20431;-47
2021/11/19 12:51:02;;;;;;;21.50;12.87;;;13.10;55.40;;;;;;5030826;28;20462;-46
2021/11/19 12:53:49;;;;;;;16.80;12.50;;;13.20;55.40;;;;;;5025250;28;20497;-48
2021/11/19 12:56:41;;;;;;;15.47;11.53;;;13.20;55.20;;;;;;5030851;28;20443;-48
2021/11/19 12:59:15;;;;;;;16.03;12.60;;;13.20;55.10;;;;;;5031020;28;20497;-46
2021/11/19 13:02:15;;;;;;;17.43;13.30;;;13.20;55.10;;;;;;5027851;28;20444;-46
2021/11/19 13:05:18;;;;;;;18.67;13.43;;;13.20;55.00;;;;;;5029288;28;20452;-47
2021/11/19 13:08:00;;;;;;;16.17;12.50;;;13.10;55.20;;;;;;5029443;28;20475;-48